Time;durP1;ratioP1;P1;durP2;ratioP2;P2;SDS_P1;SDS_P2;PMS_P1;PMS_P2;Temp;Humidity;BMP_temperature;BMP_pressure;BME280_temperature;BME280_humidity;BME280_pressure;Samples;Min_cycle;Max_cycle;Signal;HPM_P1;HPM_P2
2022/07/22 00:02:29;;;;;;;8.50;5.40;;;27.40;54.30;;;;;;220249;1267;25461;-58
2022/07/22 00:07:33;;;;;;;11.20;5.20;;;27.40;54.90;;;;;;220482;1267;25233;-58
2022/07/22 00:12:39;;;;;;;8.30;5.30;;;27.40;54.40;;;;;;220217;1267;22566;-61
2022/07/22 00:17:42;;;;;;;7.30;5.90;;;27.40;54.50;;;;;;220301;1270;22526;-59
2022/07/22 00:22:46;;;;;;;7.30;5.90;;;27.40;54.50;;;;;;220498;1267;24227;-58
2022/07/22 00:27:50;;;;;;;7.40;5.80;;;27.30;54.50;;;;;;220039;1270;22608;-58
2022/07/22 00:32:54;;;;;;;10.40;5.40;;;27.40;54.60;;;;;;220290;1267;22525;-59
2022/07/22 00:37:57;;;;;;;10.60;5.60;;;27.40;54.70;;;;;;220270;1267;22635;-58
2022/07/22 00:43:02;;;;;;;9.10;6.10;;;27.30;54.70;;;;;;220431;1267;23967;-58
2022/07/22 00:48:13;;;;;;;7.80;5.90;;;27.30;54.30;;;;;;220167;1265;24202;-57
2022/07/22 00:53:21;;;;;;;7.50;5.40;;;27.30;54.70;;;;;;220576;1269;24332;-59
2022/07/22 00:58:25;;;;;;;7.20;5.70;;;27.30;54.80;;;;;;220500;1267;24303;-58
2022/07/22 01:03:30;;;;;;;7.30;5.60;;;27.30;54.80;;;;;;220836;1267;24766;-58
2022/07/22 01:08:35;;;;;;;9.10;5.20;;;27.30;54.90;;;;;;220437;1267;24268;-58
2022/07/22 01:13:41;;;;;;;6.10;5.40;;;27.30;54.90;;;;;;220208;1267;24185;-58
2022/07/22 01:18:46;;;;;;;8.10;5.70;;;27.30;55.00;;;;;;220448;1270;25249;-58
2022/07/22 01:23:49;;;;;;;7.40;5.60;;;27.30;55.00;;;;;;220096;1270;25492;-57
2022/07/22 01:28:53;;;;;;;5.70;5.00;;;27.30;55.10;;;;;;220965;1267;22859;-58
2022/07/22 01:33:58;;;;;;;6.60;5.10;;;27.30;55.10;;;;;;220218;1267;326920;-57
2022/07/22 01:39:03;;;;;;;5.50;5.00;;;27.30;55.20;;;;;;220511;1267;25222;-58
2022/07/22 01:44:07;;;;;;;7.40;6.40;;;27.20;55.10;;;;;;220438;1268;22779;-57
2022/07/22 01:49:11;;;;;;;6.00;5.40;;;27.20;55.40;;;;;;220182;1267;22542;-59
2022/07/22 01:54:15;;;;;;;7.40;5.70;;;27.30;55.20;;;;;;220375;1267;27545;-57
2022/07/22 01:59:18;;;;;;;6.50;5.00;;;27.20;55.50;;;;;;220332;1267;22558;-58
2022/07/22 02:04:23;;;;;;;6.50;4.80;;;27.20;55.30;;;;;;220188;1270;24196;-58
2022/07/22 02:09:30;;;;;;;6.90;5.60;;;27.30;55.40;;;;;;220675;1267;22564;-58
2022/07/22 02:14:34;;;;;;;7.30;5.60;;;27.20;55.40;;;;;;220573;1267;22534;-59
2022/07/22 02:19:38;;;;;;;6.90;5.80;;;27.20;55.40;;;;;;220126;1270;22558;-58
2022/07/22 02:24:43;;;;;;;6.40;5.10;;;27.20;55.40;;;;;;220058;1270;22650;-58
2022/07/22 02:29:48;;;;;;;8.10;5.40;;;27.20;55.60;;;;;;220103;1270;24249;-56
2022/07/22 02:34:55;;;;;;;6.40;5.20;;;27.20;55.40;;;;;;220176;1270;23342;-59
2022/07/22 02:40:00;;;;;;;6.60;5.20;;;27.20;55.40;;;;;;220518;1267;22689;-59
2022/07/22 02:45:08;;;;;;;12.10;6.10;;;27.20;55.40;;;;;;220336;1267;24217;-58
2022/07/22 02:50:13;;;;;;;8.20;5.30;;;27.20;55.40;;;;;;220167;1268;25221;-58
2022/07/22 02:55:23;;;;;;;8.10;5.50;;;27.20;55.40;;;;;;220658;1267;22531;-58
2022/07/22 03:00:27;;;;;;;6.40;5.70;;;27.10;55.40;;;;;;220181;1267;24258;-58
2022/07/22 03:05:32;;;;;;;6.30;5.30;;;27.10;55.40;;;;;;221106;1267;22846;-59
2022/07/22 03:11:02;;;;;;;6.90;5.50;;;27.10;55.40;;;;;;220645;1267;22566;-60
2022/07/22 03:16:09;;;;;;;6.90;5.20;;;27.10;55.50;;;;;;220267;1270;22618;-59
2022/07/22 03:21:14;;;;;;;8.90;5.40;;;27.10;55.70;;;;;;220495;1267;24272;-59
2022/07/22 03:26:24;;;;;;;7.40;5.90;;;27.10;56.00;;;;;;220262;1267;24252;-58
2022/07/22 03:31:30;;;;;;;8.50;6.20;;;27.10;56.20;;;;;;220350;1270;25364;-59
2022/07/22 03:36:35;;;;;;;8.50;6.00;;;27.10;56.60;;;;;;220578;1268;22535;-58
2022/07/22 03:41:41;;;;;;;8.50;6.60;;;27.00;56.70;;;;;;220428;1267;25430;-58
2022/07/22 03:46:46;;;;;;;6.50;5.70;;;27.00;57.20;;;;;;220286;1267;22550;-59
2022/07/22 03:51:51;;;;;;;7.90;6.20;;;27.00;57.20;;;;;;220508;1267;22534;-57
2022/07/22 03:56:56;;;;;;;8.10;5.90;;;27.10;57.40;;;;;;220709;1270;24237;-58
2022/07/22 04:01:59;;;;;;;8.30;6.00;;;27.00;57.50;;;;;;220418;1267;24214;-59
2022/07/22 04:07:04;;;;;;;7.80;6.60;;;27.00;57.70;;;;;;220050;1267;22572;-57
2022/07/22 04:12:11;;;;;;;9.70;6.60;;;27.00;58.00;;;;;;220223;1270;24220;-61
2022/07/22 04:17:31;;;;;;;;;;;27.00;58.30;;;;;;220652;1268;22536;-58
2022/07/22 04:22:39;;;;;;;10.50;7.10;;;27.00;58.70;;;;;;220269;1267;24219;-59
2022/07/22 04:27:43;;;;;;;9.80;6.50;;;27.00;58.80;;;;;;220669;1267;25238;-56
2022/07/22 04:32:48;;;;;;;10.20;6.50;;;26.90;58.90;;;;;;220734;1268;22549;-61
2022/07/22 04:37:52;;;;;;;8.20;7.10;;;27.00;58.90;;;;;;220992;1268;24282;-57
2022/07/22 04:42:56;;;;;;;10.90;6.60;;;27.00;59.00;;;;;;220306;1267;24152;-57
2022/07/22 04:48:00;;;;;;;10.60;6.50;;;27.00;58.80;;;;;;220783;1267;22529;-58
2022/07/22 04:53:05;;;;;;;9.70;6.70;;;27.00;58.80;;;;;;220234;1267;22648;-57
2022/07/22 04:58:11;;;;;;;9.00;6.10;;;27.00;59.00;;;;;;220933;1268;22522;-58
2022/07/22 05:03:21;;;;;;;10.60;7.10;;;27.00;59.40;;;;;;220513;1270;22570;-59
2022/07/22 05:08:25;;;;;;;8.40;6.50;;;27.00;58.80;;;;;;220881;1268;23960;-58
2022/07/22 05:13:29;;;;;;;8.60;6.60;;;27.00;58.70;;;;;;220639;1268;22611;-57
2022/07/22 05:18:34;;;;;;;10.60;6.80;;;27.00;58.70;;;;;;220505;1267;22527;-58
2022/07/22 05:23:38;;;;;;;10.70;6.80;;;27.00;58.70;;;;;;220255;1267;24272;-57
2022/07/22 05:28:42;;;;;;;9.30;6.80;;;27.00;58.70;;;;;;220432;1268;22554;-56
2022/07/22 05:33:46;;;;;;;8.20;6.30;;;27.00;58.50;;;;;;220184;1270;25288;-59
2022/07/22 05:39:19;;;;;;;9.30;6.70;;;27.00;58.60;;;;;;220121;1270;24294;-57
2022/07/22 05:44:23;;;;;;;8.70;6.40;;;27.10;58.60;;;;;;220307;1270;22529;-58
2022/07/22 05:49:27;;;;;;;7.20;6.00;;;27.10;58.30;;;;;;220129;1267;22646;-57
2022/07/22 05:54:36;;;;;;;7.80;6.20;;;27.10;58.20;;;;;;220596;1267;24332;-60
2022/07/22 05:59:41;;;;;;;8.50;6.10;;;27.10;58.20;;;;;;220570;1267;22574;-60
2022/07/22 06:04:45;;;;;;;8.20;6.90;;;27.10;58.20;;;;;;220502;1267;26025;-58
2022/07/22 06:09:49;;;;;;;8.10;6.10;;;27.20;58.50;;;;;;220331;1268;24371;-57
2022/07/22 06:14:53;;;;;;;8.30;6.40;;;27.20;58.30;;;;;;220720;1271;22535;-57
2022/07/22 06:19:57;;;;;;;7.70;6.30;;;27.20;58.10;;;;;;220345;1270;25238;-58
2022/07/22 06:25:01;;;;;;;6.90;5.80;;;27.20;58.00;;;;;;220067;1268;22534;-60
2022/07/22 06:30:20;;;;;;;8.90;6.00;;;27.20;57.80;;;;;;220258;1269;22554;-58
2022/07/22 06:35:24;;;;;;;6.60;5.80;;;27.30;57.80;;;;;;219911;1270;24215;-57
2022/07/22 06:40:32;;;;;;;8.20;6.40;;;27.30;57.80;;;;;;220555;1268;24407;-58
2022/07/22 06:45:59;;;;;;;7.20;6.20;;;27.30;57.80;;;;;;220520;1271;22546;-56
2022/07/22 06:51:13;;;;;;;6.80;6.10;;;27.30;58.40;;;;;;219962;1269;25277;-58
2022/07/22 06:56:17;;;;;;;7.50;6.10;;;27.30;58.20;;;;;;220006;1271;22558;-57
2022/07/22 07:01:21;;;;;;;7.90;6.20;;;27.30;58.20;;;;;;220392;1268;24218;-58
2022/07/22 07:06:28;;;;;;;7.30;6.40;;;27.30;58.40;;;;;;220090;1271;22534;-59
2022/07/22 07:12:06;;;;;;;8.50;6.80;;;27.30;58.50;;;;;;219716;1271;25274;-59
2022/07/22 07:17:28;;;;;;;6.90;6.20;;;27.30;58.70;;;;;;219862;1268;25245;-58
2022/07/22 07:22:32;;;;;;;7.20;6.10;;;27.40;58.30;;;;;;220398;1268;22535;-60
2022/07/22 07:27:36;;;;;;;7.80;5.90;;;27.40;58.50;;;;;;220704;1268;22556;-57
2022/07/22 07:32:41;;;;;;;7.10;6.00;;;27.40;58.40;;;;;;220470;1271;24173;-61
2022/07/22 07:37:46;;;;;;;8.00;6.90;;;27.40;58.30;;;;;;220494;1270;22542;-59
2022/07/22 07:42:50;;;;;;;8.50;7.00;;;27.50;58.20;;;;;;220473;1268;22526;-59
2022/07/22 07:48:06;;;;;;;7.70;6.30;;;27.50;58.20;;;;;;220748;1268;24293;-58
2022/07/22 07:53:15;;;;;;;7.90;6.60;;;27.50;58.20;;;;;;220454;1268;22570;-58
2022/07/22 07:58:22;;;;;;;7.50;6.30;;;27.50;58.20;;;;;;220198;1268;24347;-56
2022/07/22 08:03:26;;;;;;;8.80;7.10;;;27.50;58.30;;;;;;220379;1268;25289;-56
2022/07/22 08:08:30;;;;;;;7.50;6.70;;;27.50;58.20;;;;;;220548;1268;22465;-58
2022/07/22 08:13:40;;;;;;;7.10;6.40;;;27.50;58.20;;;;;;219946;1268;23063;-59
2022/07/22 08:18:58;;;;;;;8.20;6.30;;;27.60;58.30;;;;;;220044;1268;24217;-59
2022/07/22 08:24:03;;;;;;;7.50;6.70;;;27.60;58.10;;;;;;220045;1268;22528;-58
2022/07/22 08:29:09;;;;;;;10.80;8.50;;;27.60;58.20;;;;;;219848;1271;26525;-57
2022/07/22 08:34:13;;;;;;;9.90;7.10;;;27.60;58.10;;;;;;220227;1268;22567;-57
2022/07/22 08:39:17;;;;;;;8.80;7.90;;;27.70;58.90;;;;;;220294;1268;22866;-56
2022/07/22 08:44:34;;;;;;;9.20;7.20;;;27.70;59.10;;;;;;220430;1268;26501;-56
2022/07/22 08:49:40;;;;;;;10.50;7.50;;;27.70;59.50;;;;;;220353;1268;22737;-58
2022/07/22 08:55:11;;;;;;;10.90;8.80;;;27.70;58.70;;;;;;220313;1268;22529;-61
2022/07/22 09:00:22;;;;;;;9.80;7.90;;;27.80;58.80;;;;;;220645;1268;24222;-60
2022/07/22 09:05:32;;;;;;;;;;;27.70;57.00;;;;;;219914;1268;22613;-60
2022/07/22 09:10:52;;;;;;;9.90;8.20;;;27.20;55.80;;;;;;220496;1268;24307;-58
2022/07/22 09:16:16;;;;;;;8.60;7.70;;;26.90;53.70;;;;;;220431;1269;24327;-58
2022/07/22 09:21:47;;;;;;;10.70;7.80;;;26.90;55.00;;;;;;221061;1268;24295;-63
2022/07/22 09:26:56;;;;;;;8.90;8.00;;;26.90;56.10;;;;;;220185;1267;23938;-59
2022/07/22 09:32:40;;;;;;;8.90;7.30;;;26.80;55.90;;;;;;220128;1267;22653;-58
2022/07/22 09:38:05;;;;;;;7.70;6.90;;;26.80;56.30;;;;;;220961;1267;25241;-58
2022/07/22 09:43:17;;;;;;;7.70;6.90;;;26.70;56.20;;;;;;220277;1268;22536;-60
2022/07/22 09:48:21;;;;;;;9.40;7.90;;;26.80;55.60;;;;;;220511;1267;22545;-58
2022/07/22 09:53:32;;;;;;;10.70;7.90;;;26.80;56.50;;;;;;220590;1268;22612;-58
2022/07/22 09:58:41;;;;;;;10.20;8.10;;;26.80;57.80;;;;;;220654;1267;22654;-61
2022/07/22 10:04:07;;;;;;;11.10;7.60;;;26.70;58.80;;;;;;220680;1268;22550;-59
2022/07/22 10:09:14;;;;;;;8.70;7.70;;;26.70;58.60;;;;;;220616;1267;22537;-58
2022/07/22 10:14:20;;;;;;;7.80;7.00;;;26.70;57.60;;;;;;220640;1268;25235;-58
2022/07/22 10:19:28;;;;;;;9.10;7.80;;;26.60;56.60;;;;;;220910;1267;25467;-58
2022/07/22 10:24:32;;;;;;;7.70;6.40;;;26.60;55.50;;;;;;220553;1268;24357;-60
2022/07/22 10:29:37;;;;;;;7.70;6.80;;;26.60;56.30;;;;;;220304;1270;23034;-58
2022/07/22 10:34:58;;;;;;;8.30;7.50;;;26.70;57.40;;;;;;220657;1267;22858;-57
2022/07/22 10:40:07;;;;;;;7.50;6.70;;;26.60;58.50;;;;;;220499;1268;22548;-59
2022/07/22 10:45:17;;;;;;;7.80;6.20;;;26.60;58.60;;;;;;220803;1268;23937;-57
2022/07/22 10:50:39;;;;;;;8.70;7.50;;;26.50;58.10;;;;;;220715;1267;22570;-62
2022/07/22 10:56:04;;;;;;;7.40;6.70;;;26.50;56.10;;;;;;220236;1268;22541;-63
2022/07/22 11:01:14;;;;;;;7.30;6.60;;;26.50;55.60;;;;;;220788;1267;22493;-58
2022/07/22 11:06:19;;;;;;;7.90;7.00;;;26.50;55.60;;;;;;220383;1267;25177;-58
2022/07/22 11:11:39;;;;;;;8.60;7.00;;;26.60;56.30;;;;;;220252;1267;22531;-59
2022/07/22 11:16:45;;;;;;;8.30;6.70;;;26.50;57.70;;;;;;220420;1267;22946;-58
2022/07/22 11:21:52;;;;;;;7.50;6.30;;;26.50;58.30;;;;;;220064;1270;22557;-59
2022/07/22 11:26:58;;;;;;;9.20;6.70;;;26.40;58.10;;;;;;220541;1270;22521;-58
2022/07/22 11:32:10;;;;;;;10.20;7.30;;;26.40;57.50;;;;;;220315;1267;22565;-57
2022/07/22 11:37:15;;;;;;;7.50;6.30;;;26.40;55.50;;;;;;220689;1267;22540;-57
2022/07/22 11:42:19;;;;;;;7.90;6.70;;;26.60;54.90;;;;;;220274;1268;25324;-56
2022/07/22 11:47:23;;;;;;;8.70;7.80;;;26.50;56.30;;;;;;220309;1267;22558;-59
2022/07/22 11:52:27;;;;;;;8.30;7.10;;;26.50;57.30;;;;;;220436;1267;22538;-58
2022/07/22 11:57:30;;;;;;;8.90;7.10;;;26.50;57.70;;;;;;220382;1267;24282;-57
2022/07/22 12:02:34;;;;;;;8.70;6.70;;;26.40;57.60;;;;;;220288;1267;22531;-56
2022/07/22 12:07:40;;;;;;;8.30;7.10;;;26.40;56.10;;;;;;220412;1267;24224;-57
2022/07/22 12:12:46;;;;;;;8.30;6.40;;;26.40;54.80;;;;;;220503;1267;22541;-58
2022/07/22 12:17:50;;;;;;;6.90;6.20;;;26.50;55.40;;;;;;220619;1267;23915;-61
2022/07/22 12:22:54;;;;;;;8.30;6.50;;;26.50;57.30;;;;;;220424;1267;22560;-58
2022/07/22 12:28:01;;;;;;;6.60;5.90;;;26.50;57.90;;;;;;219989;1267;24318;-59
2022/07/22 12:33:13;;;;;;;7.80;6.40;;;26.40;57.80;;;;;;220378;1267;22554;-57
2022/07/22 12:38:17;;;;;;;6.50;5.90;;;26.40;56.60;;;;;;220149;1267;24038;-58
2022/07/22 12:43:25;;;;;;;7.30;6.40;;;26.40;55.40;;;;;;220341;1267;22525;-56
2022/07/22 12:48:29;;;;;;;7.70;5.70;;;26.50;54.70;;;;;;220669;1267;23876;-56
2022/07/22 12:53:36;;;;;;;7.00;6.30;;;26.50;55.80;;;;;;220561;1267;24208;-58
2022/07/22 12:58:43;;;;;;;7.20;6.30;;;26.50;57.10;;;;;;220580;1267;24219;-57
2022/07/22 13:03:47;;;;;;;7.10;5.60;;;26.40;57.30;;;;;;220293;1268;22647;-57
2022/07/22 13:08:53;;;;;;;6.20;5.50;;;26.40;57.00;;;;;;219953;1267;22553;-57
2022/07/22 13:13:57;;;;;;;6.10;5.40;;;26.40;56.10;;;;;;220420;1267;26949;-58
2022/07/22 13:19:04;;;;;;;6.40;5.70;;;26.40;54.70;;;;;;220247;1267;23946;-56
2022/07/22 13:24:08;;;;;;;6.60;5.90;;;26.40;55.40;;;;;;220603;1267;22566;-56
2022/07/22 13:29:12;;;;;;;6.10;5.50;;;26.50;56.40;;;;;;220190;1268;22551;-60
2022/07/22 13:34:15;;;;;;;7.30;5.70;;;26.40;57.70;;;;;;220250;1268;345389;-59
2022/07/22 13:39:19;;;;;;;6.30;5.70;;;26.40;57.80;;;;;;220459;1267;24292;-58
2022/07/22 13:44:23;;;;;;;5.80;4.40;;;26.40;56.30;;;;;;220137;1267;23475;-59
2022/07/22 13:49:26;;;;;;;7.00;4.80;;;26.50;54.10;;;;;;220118;1267;24275;-56
2022/07/22 13:54:35;;;;;;;8.40;5.70;;;26.50;53.90;;;;;;220256;1268;22568;-58
2022/07/22 13:59:41;;;;;;;11.90;6.10;;;26.50;55.30;;;;;;220398;1268;24222;-62
2022/07/22 14:04:45;;;;;;;13.90;6.30;;;26.50;58.60;;;;;;220331;1268;24212;-57
